createdAt,value
2018-06-12T00:00:14.376Z,18.90
2018-06-12T00:02:43.126Z,19.00
2018-06-12T00:05:11.886Z,19.00
2018-06-12T00:07:40.669Z,18.90
2018-06-12T00:10:09.784Z,18.90
2018-06-12T00:12:39.331Z,18.90
2018-06-12T00:15:08.117Z,18.80
2018-06-12T00:17:36.900Z,18.70
2018-06-12T00:20:05.802Z,18.60
2018-06-12T00:22:35.019Z,18.70
2018-06-12T00:25:03.892Z,18.40
2018-06-12T00:27:32.801Z,18.60
2018-06-12T00:30:01.645Z,18.50
2018-06-12T00:32:30.461Z,18.40
2018-06-12T00:34:59.650Z,18.50
2018-06-12T00:37:28.417Z,18.40
2018-06-12T00:39:57.231Z,18.40
2018-06-12T00:42:26.313Z,18.50
2018-06-12T00:44:55.376Z,18.50
2018-06-12T00:47:24.167Z,18.30
2018-06-12T00:49:52.942Z,18.30
2018-06-12T00:52:21.691Z,18.20
2018-06-12T00:54:50.444Z,18.30
2018-06-12T00:57:19.206Z,18.10
2018-06-12T00:59:48.298Z,18.00
2018-06-12T01:02:17.046Z,18.40
2018-06-12T01:04:45.854Z,18.60
2018-06-12T01:07:14.668Z,18.30
2018-06-12T01:09:43.556Z,18.20
2018-06-12T01:12:12.788Z,17.80
2018-06-12T01:14:41.646Z,18.20
2018-06-12T01:17:10.509Z,17.90
2018-06-12T01:19:39.834Z,18.00
2018-06-12T01:22:08.677Z,18.10
2018-06-12T01:24:37.448Z,18.00
2018-06-12T01:27:06.919Z,17.90
2018-06-12T01:29:36.661Z,17.80
2018-06-12T01:32:05.927Z,17.50
2018-06-12T01:37:03.514Z,17.40
2018-06-12T01:39:32.339Z,17.30
2018-06-12T01:42:01.430Z,17.40
2018-06-12T01:44:30.165Z,17.30
2018-06-12T01:46:58.899Z,17.30
2018-06-12T01:49:27.988Z,17.20
2018-06-12T01:51:57.056Z,17.10
2018-06-12T01:54:25.888Z,17.20
2018-06-12T01:56:55.376Z,17.30
2018-06-12T01:59:24.207Z,17.20
2018-06-12T02:01:53.094Z,17.30
2018-06-12T02:04:22.016Z,17.30
2018-06-12T02:06:52.393Z,17.50
2018-06-12T02:09:21.181Z,17.50
2018-06-12T02:11:50.047Z,17.40
2018-06-12T02:14:19.034Z,17.50
2018-06-12T02:16:47.878Z,17.20
2018-06-12T02:19:16.764Z,17.20
2018-06-12T02:21:45.721Z,17.20
2018-06-12T02:37:20.485Z,17.10
2018-06-12T02:39:49.605Z,17.30
2018-06-12T02:42:18.369Z,17.50
2018-06-12T02:44:47.123Z,17.70
2018-06-12T02:47:16.266Z,17.30
2018-06-12T02:49:45.065Z,17.60
2018-06-12T02:52:13.772Z,17.90
2018-06-12T02:54:42.543Z,17.60
2018-06-12T02:57:11.308Z,17.50
2018-06-12T02:59:40.046Z,17.70
2018-06-12T03:02:08.791Z,17.40
2018-06-12T03:04:38.270Z,17.50
2018-06-12T03:07:07.404Z,17.70
2018-06-12T03:09:36.549Z,17.40
2018-06-12T03:12:05.385Z,17.50
2018-06-12T03:14:34.173Z,17.30
2018-06-12T03:17:02.981Z,17.20
2018-06-12T03:19:31.907Z,17.60
2018-06-12T03:22:00.733Z,17.40
2018-06-12T03:24:29.535Z,17.60
2018-06-12T03:26:58.481Z,17.20
2018-06-12T03:29:27.254Z,17.90
2018-06-12T03:31:56.400Z,18.40
2018-06-12T03:34:25.513Z,18.60
2018-06-12T03:36:54.564Z,19.20
2018-06-12T03:39:23.405Z,20.90
2018-06-12T03:41:52.193Z,22.10
2018-06-12T03:44:21.264Z,22.00
2018-06-12T03:46:50.040Z,22.40
2018-06-12T03:49:18.836Z,21.60
2018-06-12T03:51:47.612Z,21.70
2018-06-12T03:54:16.400Z,21.70
2018-06-12T03:56:45.157Z,22.40
2018-06-12T03:59:13.956Z,21.90
2018-06-12T04:01:43.204Z,21.10
2018-06-12T04:04:12.375Z,20.90
2018-06-12T04:06:41.109Z,20.50
2018-06-12T04:09:09.955Z,20.30
2018-06-12T04:11:38.787Z,20.70
2018-06-12T04:14:07.740Z,21.00
2018-06-12T04:16:37.074Z,21.20
2018-06-12T04:19:08.220Z,21.50
2018-06-12T04:21:37.081Z,22.30
2018-06-12T04:24:06.240Z,21.90
2018-06-12T04:26:35.027Z,21.10
2018-06-12T04:29:03.776Z,20.40
2018-06-12T04:31:32.619Z,20.50
2018-06-12T04:34:01.369Z,20.60
2018-06-12T04:36:30.460Z,20.40
2018-06-12T04:38:59.241Z,20.50
2018-06-12T04:41:28.387Z,20.30
2018-06-12T04:43:57.117Z,20.30
2018-06-12T04:46:25.934Z,20.20
2018-06-12T04:48:54.712Z,20.00
2018-06-12T04:51:23.496Z,19.40
2018-06-12T04:53:52.314Z,19.60
2018-06-12T04:56:21.544Z,20.00
2018-06-12T04:58:50.327Z,19.70
2018-06-12T05:01:19.163Z,19.30
2018-06-12T05:03:48.984Z,19.60
2018-06-12T05:06:17.881Z,19.80
2018-06-12T05:08:47.125Z,20.00
2018-06-12T05:11:15.945Z,20.20
2018-06-12T05:13:45.012Z,19.80
2018-06-12T05:16:13.867Z,19.80
2018-06-12T05:18:43.093Z,20.40
2018-06-12T05:21:11.879Z,20.60
2018-06-12T05:23:40.776Z,20.90
2018-06-12T05:26:09.947Z,20.70
2018-06-12T05:28:38.764Z,21.80
2018-06-12T05:31:07.575Z,22.20
2018-06-12T05:33:36.930Z,22.90
2018-06-12T05:36:06.382Z,22.80
2018-06-12T05:38:35.167Z,24.00
2018-06-12T05:41:04.209Z,26.60
2018-06-12T05:46:03.383Z,30.90
2018-06-12T05:48:32.720Z,27.20
2018-06-12T05:51:02.065Z,29.60
2018-06-12T05:53:31.759Z,32.80
2018-06-12T05:56:01.199Z,28.40
2018-06-12T05:58:30.674Z,32.40
2018-06-12T06:01:00.228Z,34.00
2018-06-12T06:03:29.794Z,35.40
2018-06-12T06:05:59.344Z,32.60
2018-06-12T06:08:29.988Z,28.20
2018-06-12T06:10:59.801Z,25.30
2018-06-12T06:13:30.427Z,30.30
2018-06-12T06:15:59.956Z,29.60
2018-06-12T06:18:29.569Z,28.90
2018-06-12T06:20:59.379Z,28.90
2018-06-12T06:23:29.193Z,27.20
2018-06-12T06:28:27.801Z,23.30
2018-06-12T06:30:56.971Z,22.60
2018-06-12T06:33:26.105Z,23.10
2018-06-12T06:35:54.861Z,21.50
2018-06-12T06:38:23.672Z,21.60
2018-06-12T06:40:52.786Z,21.90
2018-06-12T06:43:21.548Z,21.70
2018-06-12T06:45:50.334Z,21.60
2018-06-12T06:48:19.480Z,21.30
2018-06-12T06:50:48.270Z,20.90
2018-06-12T06:53:17.421Z,21.40
2018-06-12T06:55:46.526Z,21.20
2018-06-12T06:58:15.374Z,21.50
2018-06-12T07:00:44.771Z,21.30
2018-06-12T07:03:13.821Z,21.20
2018-06-12T07:05:42.996Z,21.10
2018-06-12T07:08:11.785Z,20.40
2018-06-12T07:10:40.963Z,20.50
2018-06-12T07:13:10.294Z,20.90
2018-06-12T07:15:39.609Z,21.90
2018-06-12T07:18:08.835Z,24.70
2018-06-12T07:21:20.321Z,24.10
2018-06-12T07:23:49.721Z,23.00
2018-06-12T07:26:18.496Z,21.90
2018-06-12T07:28:47.297Z,21.70
2018-06-12T07:31:16.257Z,21.20
2018-06-12T07:33:45.276Z,21.60
2018-06-12T07:36:14.529Z,21.70
2018-06-12T07:38:43.484Z,21.00
2018-06-12T07:41:13.705Z,21.70
2018-06-12T07:43:42.631Z,21.80
2018-06-12T07:46:11.858Z,20.50
2018-06-12T07:48:40.820Z,21.40
2018-06-12T07:51:09.685Z,22.20
2018-06-12T07:53:38.511Z,21.80
2018-06-12T07:56:07.311Z,22.60
2018-06-12T07:58:36.076Z,21.90
2018-06-12T08:01:05.244Z,22.20
2018-06-12T08:03:33.994Z,28.50
2018-06-12T08:06:03.065Z,26.70
2018-06-12T08:08:31.883Z,27.10
2018-06-12T08:11:01.010Z,27.00
2018-06-12T08:13:29.764Z,26.60
2018-06-12T08:15:58.540Z,24.80
2018-06-12T08:20:55.889Z,22.80
2018-06-12T08:23:24.711Z,23.20
2018-06-12T08:25:53.548Z,22.00
2018-06-12T08:28:22.487Z,22.50
2018-06-12T08:30:51.333Z,23.80
2018-06-12T08:33:20.279Z,22.50
2018-06-12T08:35:49.204Z,22.20
2018-06-12T08:38:18.394Z,22.80
2018-06-12T08:40:47.781Z,22.40
2018-06-12T08:43:16.927Z,22.40
2018-06-12T08:45:45.668Z,23.20
2018-06-12T08:48:15.161Z,22.10
2018-06-12T08:50:44.258Z,22.70
2018-06-12T08:53:13.394Z,24.00
2018-06-12T08:55:42.166Z,24.00
2018-06-12T08:58:10.972Z,23.60
2018-06-12T09:00:40.645Z,23.40
2018-06-12T09:03:09.409Z,23.70
2018-06-12T09:05:38.519Z,23.00
2018-06-12T09:08:07.361Z,22.90
2018-06-12T09:10:36.085Z,22.70
2018-06-12T09:13:05.275Z,22.60
2018-06-12T09:15:34.411Z,22.40
2018-06-12T09:18:03.366Z,22.60
2018-06-12T09:20:32.592Z,22.20
2018-06-12T09:23:01.513Z,23.10
2018-06-12T09:25:30.477Z,23.00
2018-06-12T09:27:59.537Z,22.70
2018-06-12T09:30:28.744Z,23.00
2018-06-12T09:32:58.034Z,22.50
2018-06-12T09:35:27.207Z,23.10
2018-06-12T09:37:56.331Z,22.20
2018-06-12T09:40:26.073Z,22.60
2018-06-12T09:42:54.858Z,23.30
2018-06-12T09:45:23.677Z,23.10
2018-06-12T09:47:52.447Z,22.80
2018-06-12T09:50:21.245Z,23.10
2018-06-12T09:52:50.415Z,22.70
2018-06-12T09:55:19.549Z,23.10
2018-06-12T09:57:48.719Z,23.60
2018-06-12T10:00:21.903Z,22.30
2018-06-12T10:02:50.728Z,23.80
2018-06-12T10:05:20.146Z,24.00
2018-06-12T10:07:49.232Z,23.70
2018-06-12T10:10:18.006Z,23.40
2018-06-12T10:12:46.804Z,23.70
2018-06-12T10:15:15.888Z,23.70
2018-06-12T10:17:44.705Z,23.60
2018-06-12T10:20:13.549Z,23.20
2018-06-12T10:22:42.405Z,23.20
2018-06-12T10:25:11.333Z,23.10
2018-06-12T10:27:40.196Z,23.10
2018-06-12T10:30:09.420Z,23.10
2018-06-12T10:32:38.348Z,22.70
2018-06-12T10:35:07.604Z,22.70
2018-06-12T10:37:36.913Z,22.80
2018-06-12T10:40:05.852Z,23.30
2018-06-12T10:42:34.635Z,22.70
2018-06-12T10:45:03.412Z,22.10
2018-06-12T10:50:01.061Z,23.40
2018-06-12T10:52:29.976Z,23.50
2018-06-12T10:54:58.774Z,23.20
2018-06-12T10:57:27.534Z,23.20
2018-06-12T10:59:56.648Z,22.70
2018-06-12T11:02:25.388Z,22.40
2018-06-12T11:04:54.193Z,21.50
2018-06-12T11:07:22.945Z,21.60
2018-06-12T11:09:51.849Z,21.50
2018-06-12T11:12:20.680Z,21.90
2018-06-12T11:14:49.603Z,21.80
2018-06-12T11:17:18.453Z,22.10
2018-06-12T11:19:47.427Z,21.90
2018-06-12T11:22:16.845Z,22.00
2018-06-12T11:27:20.576Z,21.90
2018-06-12T11:29:52.734Z,21.60
2018-06-12T11:34:50.308Z,21.90
2018-06-12T11:37:19.330Z,21.80
2018-06-12T11:39:48.366Z,21.90
2018-06-12T11:42:17.277Z,21.80
2018-06-12T11:44:46.708Z,21.80
2018-06-12T11:47:15.522Z,21.70
2018-06-12T11:49:44.652Z,21.40
2018-06-12T11:52:13.765Z,21.40
2018-06-12T11:54:42.884Z,21.30
2018-06-12T11:57:11.639Z,21.10
2018-06-12T11:59:40.414Z,21.20
2018-06-12T12:02:09.215Z,21.20
2018-06-12T12:04:38.032Z,21.50
2018-06-12T12:07:06.823Z,21.60
2018-06-12T12:09:35.968Z,21.60
2018-06-12T12:12:04.773Z,21.30
2018-06-12T12:14:33.582Z,21.10
2018-06-12T12:17:02.402Z,21.30
2018-06-12T12:19:31.689Z,21.40
2018-06-12T12:22:00.520Z,21.50
2018-06-12T12:24:29.484Z,21.40
2018-06-12T12:26:58.722Z,21.40
2018-06-12T12:29:27.701Z,21.50
2018-06-12T12:31:56.898Z,21.50
2018-06-12T12:34:26.219Z,21.60
2018-06-12T12:36:55.773Z,21.60
2018-06-12T12:39:24.609Z,21.70
2018-06-12T12:44:22.260Z,21.50
2018-06-12T12:46:51.012Z,21.70
2018-06-12T12:49:19.806Z,21.60
2018-06-12T12:51:48.669Z,21.70
2018-06-12T12:54:17.415Z,21.60
2018-06-12T12:56:46.848Z,21.70
2018-06-12T12:59:15.982Z,21.70
2018-06-12T13:01:45.057Z,21.70
2018-06-12T13:04:14.149Z,21.70
2018-06-12T13:06:42.927Z,21.60
2018-06-12T13:09:11.742Z,21.40
2018-06-12T13:11:40.692Z,21.60
2018-06-12T13:14:11.221Z,21.90
2018-06-12T13:16:40.061Z,21.70
2018-06-12T13:19:08.959Z,21.60
2018-06-12T13:21:37.851Z,21.50
2018-06-12T13:24:06.975Z,21.80
2018-06-12T13:26:35.905Z,21.90
2018-06-12T13:29:04.835Z,22.00
2018-06-12T13:31:33.606Z,22.00
2018-06-12T13:34:02.795Z,21.90
2018-06-12T13:36:32.017Z,21.90
2018-06-12T13:39:00.818Z,21.90
2018-06-12T13:41:29.635Z,22.10
2018-06-12T13:43:58.447Z,22.00
2018-06-12T13:46:27.258Z,22.10
2018-06-12T13:48:56.436Z,22.10
2018-06-12T13:51:25.228Z,22.20
2018-06-12T13:53:54.381Z,22.20
2018-06-12T13:56:23.162Z,21.90
2018-06-12T13:58:52.059Z,22.00
2018-06-12T14:01:20.819Z,22.10
2018-06-12T14:03:50.093Z,22.00
2018-06-12T14:06:19.240Z,22.10
2018-06-12T14:08:48.053Z,22.20
2018-06-12T14:11:17.624Z,22.40
2018-06-12T14:13:46.939Z,22.20
2018-06-12T14:16:15.838Z,22.30
2018-06-12T14:21:13.400Z,21.80
2018-06-12T14:23:42.210Z,22.00
2018-06-12T14:26:11.695Z,21.80
2018-06-12T14:28:40.480Z,21.90
2018-06-12T14:31:09.397Z,21.90
2018-06-12T14:33:38.205Z,22.10
2018-06-12T14:36:07.348Z,22.30
2018-06-12T14:38:36.071Z,22.30
2018-06-12T14:41:05.248Z,22.40
2018-06-12T14:43:34.066Z,22.40
2018-06-12T14:46:02.841Z,22.00
2018-06-12T14:48:31.595Z,22.10
2018-06-12T14:51:00.705Z,22.00
2018-06-12T14:53:29.542Z,22.20
2018-06-12T14:55:58.349Z,22.20
2018-06-12T14:58:27.217Z,22.20
2018-06-12T15:00:56.112Z,22.40
2018-06-12T15:03:25.383Z,22.40
2018-06-12T15:05:54.468Z,22.20
2018-06-12T15:08:23.886Z,22.00
2018-06-12T15:10:53.125Z,22.00
2018-06-12T15:13:22.018Z,22.10
2018-06-12T15:15:50.876Z,21.90
2018-06-12T15:18:19.682Z,21.80
2018-06-12T15:20:48.786Z,22.00
2018-06-12T15:23:17.565Z,22.00
2018-06-12T15:25:46.358Z,21.90
2018-06-12T15:28:15.494Z,22.00
2018-06-12T15:30:44.283Z,21.90
2018-06-12T15:33:13.384Z,22.00
2018-06-12T15:35:42.533Z,22.00
2018-06-12T15:38:11.976Z,22.10
2018-06-12T15:40:40.762Z,22.10
2018-06-12T15:43:09.920Z,22.10
2018-06-12T15:45:38.710Z,21.90
2018-06-12T15:48:07.642Z,22.10
2018-06-12T15:50:36.843Z,22.30
2018-06-12T15:53:06.258Z,22.60
2018-06-12T15:55:36.580Z,22.50
2018-06-12T15:58:05.872Z,22.50
2018-06-12T16:00:34.963Z,22.50
2018-06-12T16:03:03.883Z,22.10
2018-06-12T16:05:33.190Z,22.10
2018-06-12T16:08:02.060Z,21.90
2018-06-12T16:10:31.460Z,21.80
2018-06-12T16:13:02.229Z,22.00
2018-06-12T16:15:31.289Z,22.10
2018-06-12T16:18:00.215Z,22.10
2018-06-12T16:20:29.352Z,22.00
2018-06-12T16:22:58.518Z,22.10
2018-06-12T16:25:27.296Z,22.10
2018-06-12T16:27:56.391Z,22.20
2018-06-12T16:30:25.175Z,22.00
2018-06-12T16:32:54.305Z,21.80
2018-06-12T16:35:23.430Z,21.60
2018-06-12T16:37:52.545Z,21.40
2018-06-12T16:40:21.365Z,21.30
2018-06-12T16:42:50.109Z,21.30
2018-06-12T16:45:19.350Z,21.50
2018-06-12T16:47:48.205Z,21.50
2018-06-12T16:50:17.103Z,21.70
2018-06-12T16:52:46.367Z,21.80
2018-06-12T16:55:15.347Z,21.90
2018-06-12T16:57:44.381Z,21.90
2018-06-12T17:00:13.773Z,22.10
2018-06-12T17:02:42.785Z,22.10
2018-06-12T17:05:11.885Z,21.90
2018-06-12T17:07:40.960Z,21.80
2018-06-12T17:10:10.225Z,21.80
2018-06-12T17:12:39.109Z,21.80
2018-06-12T17:15:08.348Z,21.70
2018-06-12T17:17:38.058Z,21.60
2018-06-12T17:20:06.924Z,21.30
2018-06-12T17:22:35.761Z,21.20
2018-06-12T17:25:04.583Z,21.10
2018-06-12T17:27:34.060Z,21.00
2018-06-12T17:30:03.165Z,21.00
2018-06-12T17:32:31.973Z,21.10
2018-06-12T17:35:01.080Z,21.10
2018-06-12T17:37:30.187Z,21.00
2018-06-12T17:40:00.660Z,21.00
2018-06-12T17:42:29.822Z,21.00
2018-06-12T17:44:58.606Z,20.90
2018-06-12T17:47:27.502Z,20.80
2018-06-12T17:49:56.381Z,20.60
2018-06-12T17:52:25.305Z,20.60
2018-06-12T17:54:54.275Z,20.90
2018-06-12T17:57:23.579Z,21.10
2018-06-12T17:59:52.464Z,21.20
2018-06-12T18:02:21.745Z,21.20
2018-06-12T18:04:50.755Z,21.20
2018-06-12T18:07:19.737Z,21.10
2018-06-12T18:09:48.641Z,21.00
2018-06-12T18:12:17.696Z,20.90
2018-06-12T18:14:46.809Z,20.90
2018-06-12T18:17:15.662Z,20.90
2018-06-12T18:19:48.704Z,20.70
2018-06-12T18:22:17.515Z,20.70
2018-06-12T18:24:46.436Z,20.80
2018-06-12T18:27:15.420Z,20.80
2018-06-12T18:32:13.050Z,20.80
2018-06-12T18:34:41.883Z,20.80
2018-06-12T18:37:10.711Z,20.70
2018-06-12T18:39:39.532Z,20.80
2018-06-12T18:42:08.663Z,20.80
2018-06-12T18:44:37.487Z,21.00
2018-06-12T18:47:06.693Z,21.00
2018-06-12T18:49:35.593Z,20.80
2018-06-12T18:52:04.542Z,20.50
2018-06-12T18:54:33.453Z,20.60
2018-06-12T18:57:02.775Z,20.60
2018-06-12T18:59:31.886Z,20.60
2018-06-12T19:02:00.892Z,20.40
2018-06-12T19:04:30.118Z,20.40
2018-06-12T19:06:59.183Z,20.40
2018-06-12T19:09:28.148Z,20.20
2018-06-12T19:11:57.266Z,20.10
2018-06-12T19:14:26.313Z,20.00
2018-06-12T19:16:55.152Z,20.20
2018-06-12T19:19:24.041Z,20.10
2018-06-12T19:21:53.235Z,20.20
2018-06-12T19:24:22.044Z,20.20
2018-06-12T19:26:51.317Z,20.20
2018-06-12T19:29:20.243Z,20.20
2018-06-12T19:31:49.460Z,20.30
2018-06-12T19:34:18.464Z,20.30
2018-06-12T19:36:47.310Z,20.10
2018-06-12T19:39:16.225Z,19.90
2018-06-12T19:41:45.216Z,20.00
2018-06-12T19:44:14.110Z,19.70
2018-06-12T19:46:43.007Z,19.60
2018-06-12T19:49:12.080Z,19.80
2018-06-12T19:51:42.721Z,19.50
2018-06-12T19:54:11.710Z,19.50
2018-06-12T19:56:40.854Z,19.70
2018-06-12T19:59:11.009Z,19.90
2018-06-12T20:01:40.255Z,19.80
2018-06-12T20:04:09.357Z,19.70
2018-06-12T20:06:38.351Z,19.60
2018-06-12T20:09:08.578Z,19.40
2018-06-12T20:11:37.518Z,19.60
2018-06-12T20:14:06.393Z,19.60
2018-06-12T20:16:35.317Z,19.60
2018-06-12T20:19:04.187Z,19.70
2018-06-12T20:21:33.585Z,19.60
2018-06-12T20:24:02.487Z,19.60
2018-06-12T20:26:31.379Z,19.50
2018-06-12T20:29:00.220Z,19.50
2018-06-12T20:31:29.412Z,19.50
2018-06-12T20:33:59.350Z,19.40
2018-06-12T20:38:56.942Z,19.60
2018-06-12T20:41:25.909Z,19.70
2018-06-12T20:43:54.811Z,19.70
2018-06-12T20:46:23.760Z,19.70
2018-06-12T20:48:52.603Z,19.60
2018-06-12T20:51:21.536Z,19.40
2018-06-12T20:53:50.441Z,19.40
2018-06-12T20:56:19.485Z,19.50
2018-06-12T20:58:48.767Z,19.60
2018-06-12T21:01:18.078Z,19.50
2018-06-12T21:03:47.462Z,19.30
2018-06-12T21:06:16.446Z,19.10
2018-06-12T21:08:45.881Z,19.30
2018-06-12T21:11:15.476Z,19.30
2018-06-12T21:13:45.469Z,19.20
2018-06-12T21:16:15.314Z,19.30
2018-06-12T21:18:45.222Z,19.20
2018-06-12T21:21:14.725Z,19.20
2018-06-12T21:23:44.170Z,19.20
2018-06-12T21:26:13.333Z,19.00
2018-06-12T21:28:42.396Z,19.00
2018-06-12T21:31:11.689Z,19.30
2018-06-12T21:33:40.849Z,19.30
2018-06-12T21:36:09.861Z,19.20
2018-06-12T21:38:38.959Z,19.10
2018-06-12T21:41:07.826Z,19.20
2018-06-12T21:43:36.706Z,19.30
2018-06-12T21:46:06.258Z,19.00
2018-06-12T21:48:35.074Z,19.00
2018-06-12T21:51:04.995Z,19.20
2018-06-12T21:53:33.971Z,19.10
2018-06-12T21:56:02.869Z,19.00
2018-06-12T21:58:32.052Z,19.10
2018-06-12T22:01:01.176Z,19.00
2018-06-12T22:03:30.175Z,18.80
2018-06-12T22:05:59.591Z,18.80
2018-06-12T22:08:28.504Z,18.80
2018-06-12T22:11:04.253Z,18.90
2018-06-12T22:13:33.151Z,18.70
2018-06-12T22:16:02.435Z,19.00
2018-06-12T22:21:00.290Z,19.00
2018-06-12T22:23:29.488Z,18.90
2018-06-12T22:25:58.358Z,19.00
2018-06-12T22:28:27.187Z,19.10
2018-06-12T22:30:56.173Z,19.10
2018-06-12T22:33:24.953Z,19.20
2018-06-12T22:35:53.814Z,19.00
2018-06-12T22:38:22.568Z,19.10
2018-06-12T22:40:51.385Z,19.00
2018-06-12T22:43:20.473Z,19.00
2018-06-12T22:45:49.270Z,18.90
2018-06-12T22:48:18.478Z,18.90
2018-06-12T22:50:47.596Z,19.00
2018-06-12T22:53:16.340Z,18.80
2018-06-12T22:55:45.066Z,18.80
2018-06-12T22:58:14.253Z,18.90
2018-06-12T23:00:43.126Z,18.90
2018-06-12T23:03:12.318Z,18.80
2018-06-12T23:05:41.212Z,18.80
2018-06-12T23:08:10.477Z,18.70
2018-06-12T23:10:39.625Z,18.70
2018-06-12T23:13:08.915Z,18.80
2018-06-12T23:15:38.192Z,18.60
2018-06-12T23:18:07.059Z,18.60
2018-06-12T23:20:51.135Z,18.60
2018-06-12T23:23:20.225Z,18.70
2018-06-12T23:25:49.117Z,18.50
2018-06-12T23:28:18.055Z,18.70
2018-06-12T23:30:46.871Z,18.80
2018-06-12T23:33:16.126Z,18.70
2018-06-12T23:35:45.076Z,18.60
2018-06-12T23:38:13.919Z,18.60
2018-06-12T23:40:42.835Z,18.60
2018-06-12T23:43:11.715Z,18.50
2018-06-12T23:45:40.679Z,18.50
2018-06-12T23:48:09.461Z,18.70
2018-06-12T23:50:38.561Z,18.60
2018-06-12T23:53:07.466Z,18.40
2018-06-12T23:55:36.237Z,18.70
2018-06-12T23:58:05.269Z,18.50
